Time;durP1;ratioP1;P1;durP2;ratioP2;P2;SDS_P1;SDS_P2;PMS_P1;PMS_P2;Temp;Humidity;BMP_temperature;BMP_pressure;BME280_temperature;BME280_humidity;BME280_pressure;Samples;Min_cycle;Max_cycle;Signal;HPM_P1;HPM_P2
2022/05/16 00:00:22;;;;;;;0.30;0.30;;;14.70;99.90;;;;;;5093790;28;20044;-79
2022/05/16 00:02:48;;;;;;;0.77;0.57;;;14.60;99.90;;;;;;5094101;28;20450;-81
2022/05/16 00:05:14;;;;;;;0.30;0.30;;;14.60;99.90;;;;;;5093448;28;20040;-81
2022/05/16 00:07:39;;;;;;;0.53;0.53;;;14.60;99.90;;;;;;5092372;28;20131;-80
2022/05/16 00:10:06;;;;;;;0.30;0.30;;;14.60;99.90;;;;;;5092693;28;20040;-82
2022/05/16 00:12:32;;;;;;;0.40;0.40;;;14.60;99.90;;;;;;5093623;28;20044;-81
2022/05/16 00:14:58;;;;;;;0.43;0.43;;;14.50;99.90;;;;;;5093576;28;20040;-79
2022/05/16 00:17:24;;;;;;;0.40;0.40;;;14.50;99.90;;;;;;5093648;28;20039;-81
2022/05/16 00:19:50;;;;;;;0.57;0.57;;;14.50;99.90;;;;;;5095340;28;20165;-79
2022/05/16 00:22:15;;;;;;;0.30;0.30;;;14.50;99.90;;;;;;5097291;28;20130;-79
2022/05/16 00:24:42;;;;;;;0.40;0.40;;;14.50;99.90;;;;;;5097206;28;20062;-82
2022/05/16 00:27:09;;;;;;;0.57;0.50;;;14.50;99.90;;;;;;5096896;28;20044;-79
2022/05/16 00:29:35;;;;;;;0.32;0.32;;;14.40;99.90;;;;;;5097596;28;20395;-81
2022/05/16 00:32:00;;;;;;;0.60;0.50;;;14.40;99.90;;;;;;5097011;28;20040;-80
2022/05/16 00:34:26;;;;;;;0.40;0.40;;;14.30;99.90;;;;;;5097149;28;20047;-79
2022/05/16 00:36:52;;;;;;;0.40;0.40;;;14.30;99.90;;;;;;5096886;28;20371;-82
2022/05/16 00:39:20;;;;;;;0.40;0.40;;;14.30;99.90;;;;;;5097100;28;20044;-82
2022/05/16 00:41:46;;;;;;;1.33;1.20;;;14.30;99.90;;;;;;5096837;28;20089;-80
2022/05/16 00:44:13;;;;;;;0.40;0.40;;;14.30;99.90;;;;;;5096958;28;20048;-80
2022/05/16 00:46:38;;;;;;;0.32;0.32;;;14.20;99.90;;;;;;5096813;28;20475;-79
2022/05/16 00:49:09;;;;;;;0.30;0.30;;;14.20;99.90;;;;;;5096347;28;20044;-79
2022/05/16 00:51:45;;;;;;;0.30;0.30;;;14.20;99.90;;;;;;5096840;28;20462;-79
2022/05/16 00:54:19;;;;;;;0.97;0.87;;;14.10;99.90;;;;;;5096715;28;20080;-79
2022/05/16 00:56:46;;;;;;;2.50;1.20;;;14.10;99.90;;;;;;5095955;28;20492;-81
2022/05/16 00:59:12;;;;;;;0.30;0.30;;;14.10;99.90;;;;;;5096469;28;20040;-79
2022/05/16 01:04:48;;;;;;;0.30;0.30;;;14.10;99.90;;;;;;5073189;28;20056;-80
2022/05/16 01:07:18;;;;;;;0.40;0.40;;;14.00;99.90;;;;;;5096846;28;20058;-80
2022/05/16 01:09:44;;;;;;;0.30;0.30;;;14.00;99.90;;;;;;5096779;28;20056;-80
2022/05/16 01:12:09;;;;;;;0.40;0.40;;;14.00;99.90;;;;;;5096369;28;20048;-82
2022/05/16 01:14:44;;;;;;;0.40;0.40;;;14.00;99.90;;;;;;5095438;28;20048;-80
2022/05/16 01:17:10;;;;;;;0.40;0.40;;;14.00;99.90;;;;;;5096025;28;20090;-80
2022/05/16 01:19:35;;;;;;;0.30;0.30;;;14.00;99.90;;;;;;5096061;28;20046;-80
2022/05/16 01:22:10;;;;;;;0.40;0.40;;;14.00;99.90;;;;;;5096636;28;20476;-80
2022/05/16 01:24:36;;;;;;;0.50;0.50;;;14.00;99.90;;;;;;5094764;28;20485;-80
2022/05/16 01:27:02;;;;;;;0.77;0.77;;;13.90;99.90;;;;;;5095982;28;20043;-80
2022/05/16 01:29:27;;;;;;;0.53;0.53;;;13.90;99.90;;;;;;5096115;28;20426;-80
2022/05/16 01:31:53;;;;;;;0.38;0.38;;;13.90;99.90;;;;;;5111433;28;20131;-79
2022/05/16 01:34:18;;;;;;;1.13;0.70;;;13.80;99.90;;;;;;5095821;28;20043;-80
2022/05/16 01:36:44;;;;;;;0.40;0.40;;;13.80;99.90;;;;;;5095807;28;20036;-78
2022/05/16 01:39:09;;;;;;;0.30;0.30;;;13.80;99.90;;;;;;5095720;28;20097;-81
2022/05/16 01:41:35;;;;;;;0.30;0.30;;;13.80;99.90;;;;;;5094857;28;20036;-79
2022/05/16 01:44:02;;;;;;;0.52;0.52;;;13.80;99.90;;;;;;5111727;28;20084;-81
2022/05/16 01:46:39;;;;;;;0.40;0.40;;;13.80;99.90;;;;;;5094579;28;20094;-81
2022/05/16 01:49:05;;;;;;;0.30;0.30;;;13.70;99.90;;;;;;5096120;28;20083;-79
2022/05/16 01:51:31;;;;;;;0.30;0.30;;;13.70;99.90;;;;;;5094237;28;20083;-80
2022/05/16 01:53:56;;;;;;;0.30;0.30;;;13.70;99.90;;;;;;5095536;28;20048;-79
2022/05/16 01:56:22;;;;;;;0.70;0.57;;;13.70;99.90;;;;;;5095559;28;20186;-81
2022/05/16 01:58:48;;;;;;;0.30;0.30;;;13.70;99.90;;;;;;5077612;28;20051;-80
2022/05/16 02:01:14;;;;;;;0.30;0.30;;;13.70;99.90;;;;;;5095279;28;20424;-79
2022/05/16 02:03:42;;;;;;;0.65;0.65;;;13.70;99.90;;;;;;5094024;28;20044;-79
2022/05/16 02:06:08;;;;;;;0.52;0.52;;;13.70;99.90;;;;;;5094612;28;20066;-79
2022/05/16 02:08:35;;;;;;;0.30;0.30;;;13.70;99.90;;;;;;5111362;28;20040;-80
2022/05/16 02:11:01;;;;;;;0.30;0.30;;;13.60;99.90;;;;;;5095180;28;20051;-80
2022/05/16 02:13:28;;;;;;;0.40;0.40;;;13.60;99.90;;;;;;5095091;28;20278;-79
2022/05/16 02:15:53;;;;;;;0.30;0.30;;;13.60;99.90;;;;;;5093881;28;20036;-80
2022/05/16 02:18:19;;;;;;;0.40;0.40;;;13.50;99.90;;;;;;5111050;28;20052;-81
2022/05/16 02:20:45;;;;;;;0.30;0.30;;;13.60;99.90;;;;;;5077651;28;20048;-79
2022/05/16 02:25:57;;;;;;;0.38;0.38;;;13.50;99.90;;;;;;5094966;28;20048;-80
2022/05/16 02:28:23;;;;;;;0.40;0.40;;;13.50;99.90;;;;;;5093838;28;20131;-81
2022/05/16 02:30:49;;;;;;;0.40;0.40;;;13.50;99.90;;;;;;5094744;28;20044;-81
2022/05/16 02:33:16;;;;;;;0.47;0.40;;;13.40;99.90;;;;;;5094839;28;20132;-81
2022/05/16 02:35:42;;;;;;;;;;;13.40;99.90;;;;;;5095043;28;20043;-80
2022/05/16 02:38:09;;;;;;;0.30;0.30;;;13.40;99.90;;;;;;5093882;28;19920;-79
2022/05/16 02:40:36;;;;;;;0.30;0.30;;;13.40;99.90;;;;;;5094756;28;20083;-80
2022/05/16 02:43:02;;;;;;;0.30;0.30;;;13.40;99.90;;;;;;5093736;28;20044;-81
2022/05/16 02:45:30;;;;;;;0.40;0.40;;;13.40;99.90;;;;;;5095005;28;20431;-79
2022/05/16 02:47:56;;;;;;;0.43;0.43;;;13.30;99.90;;;;;;5093648;28;20048;-80
2022/05/16 02:50:23;;;;;;;0.50;0.50;;;13.30;99.90;;;;;;5094819;28;20105;-79
2022/05/16 02:52:53;;;;;;;0.40;0.40;;;13.30;99.90;;;;;;5094589;28;20443;-80
2022/05/16 02:55:20;;;;;;;0.38;0.38;;;13.30;99.90;;;;;;5094333;28;20131;-80
2022/05/16 02:57:46;;;;;;;0.85;0.63;;;13.30;99.90;;;;;;5094299;28;20036;-80
2022/05/16 03:00:13;;;;;;;0.52;0.52;;;13.30;99.90;;;;;;5094277;28;20043;-81
2022/05/16 03:02:39;;;;;;;;;;;13.30;99.90;;;;;;5093819;28;20040;-80
2022/05/16 03:05:06;;;;;;;0.57;0.57;;;13.30;99.90;;;;;;5094183;28;19920;-80
2022/05/16 03:07:31;;;;;;;0.50;0.50;;;13.30;99.90;;;;;;5094254;28;20052;-80
2022/05/16 03:09:57;;;;;;;0.97;0.77;;;13.30;99.90;;;;;;5094192;28;20056;-79
2022/05/16 03:12:23;;;;;;;0.40;0.40;;;13.20;99.90;;;;;;5094312;28;20048;-81
2022/05/16 03:14:48;;;;;;;0.77;0.77;;;13.20;99.90;;;;;;5094761;28;20083;-79
2022/05/16 03:17:14;;;;;;;0.40;0.40;;;13.20;99.90;;;;;;5093993;28;20040;-79
2022/05/16 03:19:39;;;;;;;1.83;0.57;;;13.20;99.90;;;;;;5094021;28;20514;-81
2022/05/16 03:22:06;;;;;;;0.30;0.30;;;13.10;99.90;;;;;;5093106;28;20044;-81
2022/05/16 03:24:32;;;;;;;0.40;0.40;;;13.10;99.90;;;;;;5092709;28;20048;-78
2022/05/16 03:26:58;;;;;;;0.40;0.40;;;13.00;99.90;;;;;;5093032;28;20135;-82
2022/05/16 03:29:24;;;;;;;0.30;0.30;;;13.00;99.90;;;;;;5093961;28;20278;-81
2022/05/16 03:31:50;;;;;;;0.52;0.50;;;13.00;99.90;;;;;;5076293;28;20094;-79
2022/05/16 03:34:15;;;;;;;0.30;0.30;;;12.90;99.90;;;;;;5093937;28;20083;-79
2022/05/16 03:36:41;;;;;;;1.75;1.65;;;13.00;99.90;;;;;;5093689;28;20044;-80
2022/05/16 03:41:51;;;;;;;0.52;0.52;;;12.90;99.90;;;;;;5093714;28;20142;-79
2022/05/16 03:44:18;;;;;;;0.30;0.30;;;12.90;99.90;;;;;;5093825;28;20083;-82
2022/05/16 03:46:44;;;;;;;0.52;0.52;;;12.90;99.90;;;;;;5093691;28;20032;-79
2022/05/16 03:49:10;;;;;;;0.33;0.33;;;12.90;99.90;;;;;;5109719;28;20116;-79
2022/05/16 03:51:36;;;;;;;0.40;0.40;;;12.90;99.90;;;;;;5093863;28;20048;-80
2022/05/16 03:54:02;;;;;;;0.40;0.40;;;12.90;99.90;;;;;;5094238;28;20093;-79
2022/05/16 03:56:28;;;;;;;0.47;0.47;;;12.90;99.90;;;;;;5097454;28;20080;-80
2022/05/16 03:58:55;;;;;;;0.40;0.40;;;12.90;99.90;;;;;;5097439;28;20758;-79
2022/05/16 04:01:21;;;;;;;;;;;13.00;99.90;;;;;;5096841;28;20096;-79
2022/05/16 04:03:48;;;;;;;0.40;0.40;;;13.00;99.90;;;;;;5097814;28;19919;-80
2022/05/16 04:06:14;;;;;;;0.32;0.32;;;13.00;99.90;;;;;;5097381;28;20491;-80
2022/05/16 04:08:41;;;;;;;0.50;0.50;;;13.00;99.90;;;;;;5097427;28;20095;-82
2022/05/16 04:11:08;;;;;;;0.40;0.40;;;13.00;99.90;;;;;;5097396;28;20056;-80
2022/05/16 04:13:34;;;;;;;0.40;0.40;;;13.00;99.90;;;;;;5096413;28;20044;-78
2022/05/16 04:16:00;;;;;;;0.30;0.30;;;13.00;99.90;;;;;;5097312;28;20032;-78
2022/05/16 04:18:26;;;;;;;0.40;0.40;;;13.10;99.90;;;;;;5096486;28;20037;-78
2022/05/16 04:20:51;;;;;;;0.40;0.40;;;13.10;99.90;;;;;;5097451;28;20369;-80
2022/05/16 04:23:18;;;;;;;0.40;0.40;;;13.10;99.90;;;;;;5096880;28;20101;-81
2022/05/16 04:25:44;;;;;;;;;;;13.20;99.90;;;;;;5097799;28;20051;-87
2022/05/16 04:28:10;;;;;;;0.40;0.40;;;13.10;99.90;;;;;;5097736;28;19920;-82
2022/05/16 04:30:37;;;;;;;0.70;0.70;;;13.20;99.90;;;;;;5097835;28;20055;-79
2022/05/16 04:33:04;;;;;;;1.75;1.33;;;13.20;99.90;;;;;;5096300;28;20043;-81
2022/05/16 04:35:30;;;;;;;0.40;0.40;;;13.20;99.90;;;;;;5097612;28;20083;-81
2022/05/16 04:37:56;;;;;;;0.40;0.40;;;13.20;99.90;;;;;;5096947;28;20063;-80
2022/05/16 04:40:22;;;;;;;11.85;1.38;;;13.20;99.90;;;;;;5097127;28;20080;-80
2022/05/16 04:42:48;;;;;;;0.38;0.38;;;13.20;99.90;;;;;;5095995;28;20499;-79
2022/05/16 04:45:21;;;;;;;0.35;0.35;;;13.20;99.90;;;;;;5098531;28;20047;-80
2022/05/16 04:47:51;;;;;;;0.40;0.40;;;13.30;99.90;;;;;;5096903;28;20050;-81
2022/05/16 04:50:21;;;;;;;0.50;0.50;;;13.30;99.90;;;;;;5095956;28;20073;-78
2022/05/16 04:52:47;;;;;;;0.40;0.40;;;13.30;99.90;;;;;;5096868;28;20044;-80
2022/05/16 04:55:13;;;;;;;0.30;0.30;;;13.30;99.90;;;;;;5096921;28;20066;-79
2022/05/16 04:57:39;;;;;;;0.30;0.30;;;13.40;99.90;;;;;;5095604;28;20047;-78
2022/05/16 05:00:06;;;;;;;1.98;1.10;;;13.50;99.90;;;;;;5095976;28;20044;-80
2022/05/16 05:02:32;;;;;;;0.40;0.40;;;13.40;99.90;;;;;;5095268;28;20040;-79
2022/05/16 05:04:59;;;;;;;0.30;0.30;;;13.40;99.90;;;;;;5095266;28;20066;-81
2022/05/16 05:07:25;;;;;;;0.30;0.30;;;13.40;99.90;;;;;;5095844;28;20131;-79
2022/05/16 05:15:19;;;;;;;0.40;0.40;;;13.40;99.90;;;;;;5096214;28;20048;-78
2022/05/16 05:17:46;;;;;;;0.40;0.40;;;13.40;99.90;;;;;;5096064;28;20040;-77
2022/05/16 05:20:13;;;;;;;0.40;0.40;;;13.50;99.90;;;;;;5078229;28;20048;-82
2022/05/16 05:22:39;;;;;;;;;;;13.60;99.90;;;;;;5095666;28;20548;-81
2022/05/16 05:25:05;;;;;;;0.30;0.30;;;13.50;99.90;;;;;;5095221;28;19943;-85
2022/05/16 05:27:32;;;;;;;0.30;0.30;;;13.60;99.90;;;;;;5096303;28;20460;-83
2022/05/16 05:29:57;;;;;;;0.43;0.43;;;13.60;99.90;;;;;;5095266;28;20048;-83
2022/05/16 05:32:23;;;;;;;0.30;0.30;;;13.80;99.90;;;;;;5112447;28;20062;-85
2022/05/16 05:34:49;;;;;;;0.30;0.30;;;13.60;99.90;;;;;;5095355;28;20131;-87
2022/05/16 05:37:16;;;;;;;0.30;0.30;;;13.80;99.90;;;;;;5095238;28;20047;-86
2022/05/16 05:39:41;;;;;;;0.65;0.65;;;13.90;99.90;;;;;;5111928;28;20105;-81
2022/05/16 05:42:07;;;;;;;0.73;0.73;;;14.00;99.90;;;;;;5094775;28;20480;-85
2022/05/16 05:44:33;;;;;;;0.50;0.50;;;14.20;99.90;;;;;;5111975;28;20044;-84
2022/05/16 05:47:00;;;;;;;0.30;0.30;;;14.40;99.90;;;;;;5112166;28;20040;-88
2022/05/16 05:49:26;;;;;;;0.30;0.30;;;14.60;99.90;;;;;;5079188;28;20052;-85
2022/05/16 05:51:52;;;;;;;0.47;0.47;;;14.80;99.90;;;;;;5112854;28;20075;-88
2022/05/16 05:54:17;;;;;;;0.50;0.50;;;15.00;99.90;;;;;;5095860;28;20050;-84
2022/05/16 05:56:43;;;;;;;0.52;0.52;;;15.20;99.90;;;;;;5096041;28;20040;-85
2022/05/16 05:59:08;;;;;;;0.90;0.63;;;15.40;99.90;;;;;;5094870;28;20044;-86
2022/05/16 06:01:34;;;;;;;0.47;0.47;;;15.60;99.90;;;;;;5095204;28;20052;-88
2022/05/16 06:03:59;;;;;;;0.68;0.68;;;15.70;99.90;;;;;;5095023;28;20044;-84
2022/05/16 06:06:25;;;;;;;0.30;0.30;;;16.10;99.90;;;;;;5094733;28;20464;-83
2022/05/16 06:08:51;;;;;;;0.30;0.30;;;16.30;99.90;;;;;;5077905;28;20440;-85
2022/05/16 06:11:16;;;;;;;1.30;0.77;;;16.40;99.90;;;;;;5112396;28;20047;-83
2022/05/16 06:13:43;;;;;;;0.95;0.50;;;16.40;99.90;;;;;;5095730;28;20079;-84
2022/05/16 06:16:09;;;;;;;0.40;0.40;;;16.40;99.90;;;;;;5095368;28;20062;-83
2022/05/16 06:18:35;;;;;;;0.30;0.30;;;16.40;99.90;;;;;;5093645;28;20539;-78
2022/05/16 06:21:00;;;;;;;0.30;0.30;;;16.40;99.90;;;;;;5094131;28;20132;-79
2022/05/16 06:23:26;;;;;;;0.30;0.30;;;16.70;99.90;;;;;;5110945;28;20369;-78
2022/05/16 06:25:52;;;;;;;0.30;0.30;;;16.80;99.90;;;;;;5094935;28;20120;-78
2022/05/16 06:28:21;;;;;;;0.30;0.30;;;17.00;99.90;;;;;;5095009;28;20059;-81
2022/05/16 06:30:49;;;;;;;0.30;0.30;;;17.10;99.90;;;;;;5093737;28;20066;-75
2022/05/16 06:33:16;;;;;;;0.30;0.30;;;17.20;99.90;;;;;;5094850;28;20040;-78
2022/05/16 06:35:42;;;;;;;2.10;0.68;;;17.40;99.90;;;;;;5094645;28;20048;-74
2022/05/16 06:38:14;;;;;;;0.80;0.65;;;17.50;99.90;;;;;;5094641;28;20046;-78
2022/05/16 06:40:41;;;;;;;0.30;0.30;;;17.70;99.90;;;;;;5094829;28;20052;-81
2022/05/16 06:43:07;;;;;;;0.57;0.57;;;17.70;99.90;;;;;;5094657;28;20162;-80
2022/05/16 06:45:33;;;;;;;0.85;0.68;;;17.80;99.90;;;;;;5093439;28;20131;-78
2022/05/16 06:47:59;;;;;;;0.20;0.20;;;17.90;99.90;;;;;;5094601;28;20083;-78
2022/05/16 06:50:25;;;;;;;0.30;0.30;;;18.00;99.90;;;;;;5094125;28;20043;-77
2022/05/16 06:52:51;;;;;;;0.40;0.40;;;18.20;99.90;;;;;;5094390;28;20036;-78
2022/05/16 06:55:17;;;;;;;0.77;0.77;;;18.30;99.90;;;;;;5094270;28;20050;-79
2022/05/16 06:57:43;;;;;;;15.18;1.58;;;18.40;99.90;;;;;;5094230;28;20083;-79
2022/05/16 07:00:09;;;;;;;0.53;0.53;;;18.40;99.90;;;;;;5076854;28;20044;-83
2022/05/16 07:02:35;;;;;;;0.35;0.35;;;18.50;99.90;;;;;;5093426;28;20495;-80
2022/05/16 07:05:01;;;;;;;0.50;0.50;;;18.60;99.90;;;;;;5093313;28;20048;-80
2022/05/16 07:07:28;;;;;;;0.75;0.75;;;18.70;99.90;;;;;;5094441;28;20052;-80
2022/05/16 07:09:53;;;;;;;;;;;18.90;99.90;;;;;;5094587;28;20056;-78
2022/05/16 07:12:19;;;;;;;0.45;0.45;;;19.00;99.90;;;;;;5093012;28;19920;-79
2022/05/16 07:14:45;;;;;;;1.17;1.07;;;19.00;99.90;;;;;;5094052;28;20100;-81
2022/05/16 07:17:12;;;;;;;0.30;0.30;;;19.20;99.90;;;;;;5093868;28;20041;-78
2022/05/16 07:19:38;;;;;;;0.30;0.30;;;19.40;99.90;;;;;;5093924;28;20113;-81
2022/05/16 07:22:09;;;;;;;0.50;0.50;;;19.40;99.90;;;;;;5093171;28;20433;-82
2022/05/16 07:24:34;;;;;;;1.30;0.93;;;19.50;99.90;;;;;;5092648;28;20146;-79
2022/05/16 07:29:44;;;;;;;1.50;0.85;;;19.60;99.90;;;;;;5093278;28;20048;-81
2022/05/16 07:32:13;;;;;;;0.40;0.30;;;19.60;99.90;;;;;;5093407;28;20044;-86
2022/05/16 07:34:39;;;;;;;1.20;1.10;;;19.80;99.90;;;;;;5092994;28;20052;-84
2022/05/16 07:37:06;;;;;;;0.45;0.45;;;19.90;99.90;;;;;;5076135;28;20093;-78
2022/05/16 07:39:34;;;;;;;0.30;0.30;;;20.10;99.90;;;;;;5075904;28;20052;-80
2022/05/16 07:42:04;;;;;;;0.30;0.30;;;20.30;99.90;;;;;;5093813;28;20048;-79
2022/05/16 07:44:29;;;;;;;0.28;0.28;;;20.30;99.10;;;;;;5075878;28;20102;-78
2022/05/16 07:46:55;;;;;;;0.20;0.20;;;20.50;98.50;;;;;;5093773;28;20403;-77
2022/05/16 07:49:21;;;;;;;0.30;0.30;;;20.50;98.30;;;;;;5092071;28;20118;-77
2022/05/16 07:51:46;;;;;;;0.80;0.80;;;20.70;98.50;;;;;;5093882;28;20040;-79
2022/05/16 07:54:12;;;;;;;0.50;0.50;;;20.80;98.80;;;;;;5093939;28;20093;-79
2022/05/16 07:56:39;;;;;;;0.40;0.40;;;20.90;99.00;;;;;;5093637;28;20106;-80
2022/05/16 07:59:06;;;;;;;1.98;1.75;;;20.90;98.00;;;;;;5093896;28;20048;-79
2022/05/16 08:01:32;;;;;;;0.30;0.30;;;21.00;98.30;;;;;;5093883;28;20043;-80
2022/05/16 08:03:58;;;;;;;1.57;1.47;;;20.90;97.50;;;;;;5093645;28;20515;-77
2022/05/16 08:06:27;;;;;;;0.40;0.40;;;20.90;97.40;;;;;;5093960;28;20212;-78
2022/05/16 08:11:37;;;;;;;0.40;0.40;;;21.00;97.40;;;;;;5094054;28;20422;-81
2022/05/16 08:14:03;;;;;;;0.30;0.30;;;21.10;97.30;;;;;;5094390;28;20048;-79
2022/05/16 08:16:29;;;;;;;0.40;0.40;;;21.30;97.40;;;;;;5109368;28;20040;-80
2022/05/16 08:18:55;;;;;;;0.35;0.35;;;21.50;97.20;;;;;;5093507;28;20381;-81
2022/05/16 08:21:20;;;;;;;0.40;0.40;;;21.70;97.30;;;;;;5094376;28;20051;-83
2022/05/16 08:23:46;;;;;;;0.30;0.30;;;21.80;96.50;;;;;;5092310;28;20044;-80
2022/05/16 08:26:11;;;;;;;0.40;0.40;;;21.70;95.40;;;;;;5093517;28;20115;-80
2022/05/16 08:28:38;;;;;;;0.97;0.97;;;21.70;95.50;;;;;;5093436;28;20564;-80
2022/05/16 08:31:04;;;;;;;0.45;0.45;;;21.90;95.90;;;;;;5093534;28;20131;-79
2022/05/16 08:33:30;;;;;;;1.10;0.50;;;22.20;95.80;;;;;;5092341;28;20465;-80
2022/05/16 08:41:30;;;;;;;0.52;0.52;;;22.60;94.90;;;;;;5095192;28;20048;-84
2022/05/16 08:44:09;;;;;;;0.65;0.45;;;22.70;95.30;;;;;;5097073;28;20185;-83
2022/05/16 08:46:34;;;;;;;0.30;0.30;;;22.90;94.70;;;;;;5095996;28;20051;-79
2022/05/16 08:49:29;;;;;;;0.40;0.40;;;23.00;94.50;;;;;;5096786;28;20048;-80
2022/05/16 08:52:03;;;;;;;0.20;0.20;;;23.10;94.50;;;;;;5097243;28;20135;-81
2022/05/16 08:54:38;;;;;;;0.52;0.52;;;23.30;94.60;;;;;;5097409;28;20369;-82
2022/05/16 08:57:07;;;;;;;0.30;0.30;;;23.50;93.90;;;;;;5097059;28;20076;-80
2022/05/16 08:59:36;;;;;;;0.22;0.22;;;23.60;93.70;;;;;;5096028;28;20093;-81
2022/05/16 09:02:15;;;;;;;0.30;0.30;;;23.70;92.90;;;;;;5097000;28;20044;-85
2022/05/16 09:04:54;;;;;;;0.38;0.38;;;23.80;93.40;;;;;;5095937;28;20040;-80
2022/05/16 09:07:34;;;;;;;0.47;0.40;;;23.90;93.10;;;;;;5095372;28;20048;-80
2022/05/16 09:10:06;;;;;;;0.40;0.40;;;23.90;92.90;;;;;;5095198;28;20395;-78
2022/05/16 09:13:03;;;;;;;0.20;0.20;;;24.20;92.80;;;;;;5096478;28;20498;-77
2022/05/16 09:16:09;;;;;;;0.30;0.30;;;24.20;92.60;;;;;;5096458;28;20131;-79
2022/05/16 09:18:48;;;;;;;0.43;0.43;;;24.40;92.00;;;;;;5095351;28;20039;-75
2022/05/16 09:21:20;;;;;;;0.40;0.40;;;24.30;91.90;;;;;;5095531;28;20400;-77
2022/05/16 09:24:04;;;;;;;0.43;0.40;;;24.20;92.30;;;;;;5095920;28;20048;-81
2022/05/16 09:26:43;;;;;;;2.58;0.65;;;24.30;92.60;;;;;;5086549;28;20036;-78
2022/05/16 09:29:31;;;;;;;0.30;0.30;;;24.30;92.20;;;;;;5075278;28;20068;-79
2022/05/16 09:32:04;;;;;;;1.30;0.55;;;24.20;91.60;;;;;;5085657;28;20043;-78
2022/05/16 09:34:31;;;;;;;0.75;0.55;;;24.10;92.50;;;;;;5083781;28;20048;-79
2022/05/16 09:36:57;;;;;;;0.85;0.40;;;24.20;92.20;;;;;;5073685;28;20106;-80
2022/05/16 09:39:31;;;;;;;0.30;0.30;;;24.20;92.80;;;;;;5074758;28;20052;-76
2022/05/16 09:42:05;;;;;;;1.10;0.57;;;24.20;93.00;;;;;;5075441;28;20048;-78
2022/05/16 09:44:39;;;;;;;3.22;1.42;;;24.40;92.80;;;;;;5075114;28;20051;-78
2022/05/16 09:47:18;;;;;;;0.52;0.52;;;24.70;92.30;;;;;;5075582;28;20397;-78
2022/05/16 09:49:46;;;;;;;0.30;0.30;;;25.00;91.90;;;;;;5076230;28;20048;-80
2022/05/16 09:52:21;;;;;;;0.47;0.47;;;25.20;92.30;;;;;;5083694;28;20043;-80
2022/05/16 09:55:10;;;;;;;0.63;0.55;;;25.30;91.50;;;;;;5093746;28;20427;-76
2022/05/16 09:57:53;;;;;;;7.75;0.35;;;25.30;89.80;;;;;;5094935;28;20072;-78
2022/05/16 10:00:25;;;;;;;0.30;0.30;;;25.30;90.40;;;;;;5095068;28;20039;-77
2022/05/16 10:03:16;;;;;;;0.35;0.35;;;25.10;90.00;;;;;;5095200;28;20399;-79
2022/05/16 10:05:47;;;;;;;3.28;0.70;;;25.10;90.20;;;;;;5084228;28;20127;-83
2022/05/16 10:08:22;;;;;;;0.55;0.55;;;25.10;90.60;;;;;;5095053;28;20048;-78
2022/05/16 10:10:48;;;;;;;0.30;0.30;;;25.00;90.00;;;;;;5094008;28;20531;-78
2022/05/16 10:13:15;;;;;;;0.65;0.65;;;25.20;89.80;;;;;;5094584;28;20132;-79
2022/05/16 10:15:41;;;;;;;0.85;0.85;;;25.30;90.40;;;;;;5094891;28;20059;-81
2022/05/16 10:18:12;;;;;;;0.60;0.60;;;25.60;88.70;;;;;;5095020;28;20044;-75
2022/05/16 10:20:46;;;;;;;0.30;0.30;;;26.00;89.00;;;;;;5093899;28;20060;-74
2022/05/16 10:23:36;;;;;;;0.40;0.40;;;26.30;87.10;;;;;;5094255;28;20119;-77
2022/05/16 10:26:12;;;;;;;0.60;0.60;;;26.60;87.10;;;;;;5087406;28;20446;-76
2022/05/16 10:28:46;;;;;;;1.40;1.30;;;26.90;87.40;;;;;;5094611;28;20082;-80
2022/05/16 10:34:09;;;;;;;0.30;0.30;;;27.40;86.90;;;;;;5094498;28;20052;-77
2022/05/16 10:36:36;;;;;;;0.57;0.43;;;27.20;83.50;;;;;;5094472;28;20044;-75
2022/05/16 10:39:28;;;;;;;2.40;1.05;;;27.10;84.30;;;;;;5094249;28;20083;-75
2022/05/16 10:41:57;;;;;;;0.30;0.30;;;26.80;85.40;;;;;;5094325;28;20073;-77
2022/05/16 10:44:29;;;;;;;0.30;0.30;;;26.70;85.90;;;;;;5094220;28;20082;-77
2022/05/16 10:47:21;;;;;;;4.90;1.30;;;26.70;86.50;;;;;;5094445;28;20092;-74
2022/05/16 10:50:03;;;;;;;0.93;0.93;;;26.60;86.70;;;;;;5094152;28;20066;-75
2022/05/16 10:52:52;;;;;;;0.30;0.30;;;26.60;85.30;;;;;;5094095;28;20472;-76
2022/05/16 10:55:19;;;;;;;0.30;0.30;;;26.50;84.60;;;;;;5094340;28;20043;-75
2022/05/16 10:58:10;;;;;;;0.85;0.75;;;26.50;87.00;;;;;;5093891;28;20065;-78
2022/05/16 11:01:06;;;;;;;1.98;0.60;;;26.40;86.50;;;;;;5094106;28;20097;-76
2022/05/16 11:04:04;;;;;;;0.52;0.38;;;26.40;86.80;;;;;;5093410;28;20043;-80
2022/05/16 11:06:41;;;;;;;;;;;26.50;87.00;;;;;;5093738;28;20439;-74
2022/05/16 11:09:38;;;;;;;0.88;0.52;;;26.40;86.90;;;;;;5093541;28;19972;-76
2022/05/16 11:12:12;;;;;;;0.47;0.40;;;26.40;87.10;;;;;;5061996;28;20059;-77
2022/05/16 11:14:59;;;;;;;0.40;0.40;;;26.20;86.30;;;;;;5093945;28;20097;-74
2022/05/16 11:17:36;;;;;;;0.50;0.50;;;26.10;87.40;;;;;;5093514;28;20047;-75
2022/05/16 11:20:08;;;;;;;0.55;0.55;;;26.00;88.20;;;;;;5094013;28;20313;-78
2022/05/16 11:22:42;;;;;;;0.30;0.30;;;25.90;89.00;;;;;;5093281;28;20124;-78
2022/05/16 11:25:23;;;;;;;0.30;0.30;;;25.80;89.20;;;;;;5093846;28;20036;-75
2022/05/16 11:27:51;;;;;;;0.30;0.30;;;25.90;90.10;;;;;;5092246;28;20048;-76
2022/05/16 11:30:34;;;;;;;0.30;0.30;;;25.70;88.50;;;;;;5093606;28;20044;-75
2022/05/16 11:33:14;;;;;;;0.45;0.38;;;25.60;89.60;;;;;;5093612;28;20044;-77
2022/05/16 11:35:47;;;;;;;0.30;0.30;;;25.40;90.20;;;;;;5093356;28;20533;-77
2022/05/16 11:38:27;;;;;;;0.50;0.50;;;25.40;91.40;;;;;;5093368;28;20105;-80
2022/05/16 11:41:11;;;;;;;1.00;0.40;;;25.30;91.30;;;;;;5093471;28;20044;-77
2022/05/16 11:43:46;;;;;;;0.30;0.30;;;25.10;92.00;;;;;;5093342;28;20048;-77
2022/05/16 11:46:31;;;;;;;0.50;0.50;;;25.10;92.30;;;;;;5093384;28;20422;-77
2022/05/16 11:49:15;;;;;;;0.25;0.25;;;25.00;93.20;;;;;;5093746;28;20047;-76
2022/05/16 11:52:16;;;;;;;0.43;0.43;;;25.00;95.00;;;;;;5090898;28;20069;-78
2022/05/16 11:54:58;;;;;;;0.30;0.30;;;24.80;96.60;;;;;;5068148;28;20052;-82
2022/05/16 12:03:00;;;;;;;0.28;0.28;;;24.50;98.40;;;;;;5093252;28;20048;-80
2022/05/16 12:05:26;;;;;;;0.35;0.35;;;24.40;99.70;;;;;;5093170;28;20050;-82
2022/05/16 12:08:04;;;;;;;0.20;0.20;;;24.20;99.10;;;;;;5094430;28;20646;-86
2022/05/16 12:10:31;;;;;;;0.20;0.20;;;24.20;99.20;;;;;;5075813;28;20055;-85
2022/05/16 12:13:27;;;;;;;0.75;0.75;;;24.10;99.30;;;;;;5093466;28;20072;-82
2022/05/16 12:16:19;;;;;;;0.20;0.20;;;24.00;99.80;;;;;;5095366;28;20090;-83
2022/05/16 12:19:08;;;;;;;0.20;0.20;;;24.00;99.90;;;;;;5095556;28;20043;-82
2022/05/16 12:21:35;;;;;;;0.50;0.50;;;24.00;99.90;;;;;;5096520;28;20047;-79
2022/05/16 12:24:04;;;;;;;0.30;0.30;;;24.00;99.90;;;;;;5097052;28;20051;-82
2022/05/16 12:26:52;;;;;;;0.20;0.20;;;24.00;99.90;;;;;;5097277;28;20044;-83
2022/05/16 12:29:21;;;;;;;0.90;0.40;;;24.00;99.90;;;;;;5096175;28;20536;-84
2022/05/16 12:31:49;;;;;;;0.22;0.22;;;24.00;99.90;;;;;;5097491;28;20437;-85
2022/05/16 12:34:35;;;;;;;0.43;0.32;;;24.10;99.90;;;;;;5095912;28;20055;-82
2022/05/16 12:37:05;;;;;;;0.30;0.30;;;24.30;99.90;;;;;;5095507;28;20075;-86
2022/05/16 12:39:39;;;;;;;0.63;0.30;;;24.40;99.90;;;;;;5096587;28;20044;-82
2022/05/16 12:42:24;;;;;;;0.22;0.22;;;24.50;99.80;;;;;;5079323;28;20134;-84
2022/05/16 12:45:02;;;;;;;0.50;0.50;;;24.70;99.20;;;;;;5097131;28;20576;-84
2022/05/16 12:47:47;;;;;;;0.30;0.30;;;24.90;99.00;;;;;;5078579;28;20089;-86
2022/05/16 12:50:43;;;;;;;17.83;0.68;;;25.00;98.50;;;;;;5096909;28;20431;-84
2022/05/16 12:53:36;;;;;;;0.50;0.50;;;25.20;98.10;;;;;;5093299;28;20143;-82
2022/05/16 12:56:18;;;;;;;0.35;0.35;;;25.40;96.70;;;;;;5096350;28;20040;-82
2022/05/16 12:58:58;;;;;;;0.30;0.30;;;25.40;96.50;;;;;;5095532;28;20044;-85
2022/05/16 13:01:38;;;;;;;0.22;0.22;;;25.40;96.60;;;;;;5096824;28;20052;-82
2022/05/16 13:04:12;;;;;;;0.20;0.20;;;25.40;94.80;;;;;;5095578;28;20044;-83
2022/05/16 13:07:02;;;;;;;0.45;0.43;;;25.30;94.90;;;;;;5077462;28;20064;-86
2022/05/16 13:09:52;;;;;;;0.20;0.20;;;25.20;94.80;;;;;;5095784;28;20063;-83
2022/05/16 13:12:48;;;;;;;0.20;0.20;;;25.10;95.40;;;;;;5095013;28;20040;-82
2022/05/16 13:15:41;;;;;;;0.20;0.20;;;25.00;95.10;;;;;;5094480;28;20496;-86
2022/05/16 13:18:21;;;;;;;0.20;0.20;;;25.00;95.60;;;;;;5078613;28;20040;-83
2022/05/16 13:20:51;;;;;;;0.50;0.50;;;25.00;96.10;;;;;;5077402;28;20047;-83
2022/05/16 13:23:19;;;;;;;0.20;0.20;;;24.90;95.60;;;;;;5096054;28;20052;-81
2022/05/16 13:31:17;;;;;;;0.20;0.20;;;24.80;96.10;;;;;;5093187;28;20468;-79
2022/05/16 13:33:42;;;;;;;0.20;0.20;;;24.80;96.10;;;;;;5077171;28;20051;-78
2022/05/16 13:36:21;;;;;;;0.30;0.30;;;24.70;96.00;;;;;;5094063;28;20044;-79
2022/05/16 13:38:55;;;;;;;0.30;0.30;;;24.70;96.70;;;;;;5094312;28;20052;-78
2022/05/16 13:41:23;;;;;;;0.30;0.30;;;24.60;96.10;;;;;;5094111;28;20491;-79
2022/05/16 13:43:50;;;;;;;0.40;0.40;;;24.60;96.20;;;;;;5093894;28;20472;-81